Time;durP1;ratioP1;P1;durP2;ratioP2;P2;SDS_P1;SDS_P2;PMS_P1;PMS_P2;Temp;Humidity;BMP_temperature;BMP_pressure;BME280_temperature;BME280_humidity;BME280_pressure;Samples;Min_cycle;Max_cycle;Signal;HPM_P1;HPM_P2
2022/09/05 00:02:30;;;;;;;2.88;1.20;;;22.80;51.80;;;;;;6242903;23;20007;-68
2022/09/05 00:05:15;;;;;;;1.10;1.00;;;22.80;51.80;;;;;;6240241;23;20004;-66
2022/09/05 00:08:01;;;;;;;2.97;1.20;;;22.80;51.90;;;;;;6242110;23;20000;-66
2022/09/05 00:10:38;;;;;;;1.60;1.50;;;22.80;52.00;;;;;;6242669;23;20008;-67
2022/09/05 00:13:11;;;;;;;1.65;1.38;;;22.80;52.00;;;;;;6242621;23;20429;-67
2022/09/05 00:16:14;;;;;;;1.60;1.33;;;22.80;52.20;;;;;;6243033;23;20007;-66
2022/09/05 00:18:58;;;;;;;1.30;1.20;;;22.80;52.30;;;;;;6243179;23;20000;-66
2022/09/05 00:21:55;;;;;;;2.15;1.42;;;22.80;52.50;;;;;;6243480;23;20004;-67
2022/09/05 00:25:01;;;;;;;1.65;1.55;;;22.80;52.60;;;;;;6242842;23;19997;-67
2022/09/05 00:27:31;;;;;;;1.65;1.55;;;22.70;52.90;;;;;;6212156;23;20019;-68
2022/09/05 00:30:12;;;;;;;2.40;1.55;;;22.70;53.10;;;;;;6244912;23;20000;-67
2022/09/05 00:32:49;;;;;;;1.52;1.42;;;22.70;53.30;;;;;;6242783;23;20007;-68
2022/09/05 00:35:30;;;;;;;2.15;1.60;;;22.70;53.50;;;;;;6242391;23;20011;-68
2022/09/05 00:37:57;;;;;;;3.15;1.58;;;22.70;53.60;;;;;;6242485;23;20002;-68
2022/09/05 00:40:35;;;;;;;2.53;1.70;;;22.70;53.60;;;;;;6242577;22;19996;-68
2022/09/05 00:43:08;;;;;;;2.55;1.90;;;22.60;53.70;;;;;;6240524;23;20087;-68
2022/09/05 00:45:46;;;;;;;3.65;2.03;;;22.60;54.10;;;;;;6242521;23;20004;-67
2022/09/05 00:48:30;;;;;;;9.73;6.32;;;22.50;54.60;;;;;;6242753;23;20050;-67
2022/09/05 00:51:03;;;;;;;7.15;4.85;;;22.50;54.80;;;;;;6242092;23;20079;-67
2022/09/05 00:53:48;;;;;;;4.68;2.70;;;22.50;54.90;;;;;;6242790;23;20357;-67
2022/09/05 00:56:44;;;;;;;3.20;2.38;;;22.40;55.00;;;;;;6242347;23;20008;-67
2022/09/05 00:59:52;;;;;;;3.33;2.20;;;22.40;55.20;;;;;;6242562;23;20377;-67
2022/09/05 01:02:30;;;;;;;2.90;2.00;;;22.40;55.20;;;;;;6230090;23;20000;-67
2022/09/05 01:05:25;;;;;;;1.98;1.70;;;22.40;55.40;;;;;;6243028;23;20429;-67
2022/09/05 01:08:20;;;;;;;2.55;1.98;;;22.40;55.50;;;;;;6242882;23;20007;-66
2022/09/05 01:11:23;;;;;;;2.78;2.00;;;22.40;55.60;;;;;;6242506;23;20065;-67
2022/09/05 01:13:56;;;;;;;1.92;1.73;;;22.40;55.70;;;;;;6242775;23;20026;-67
2022/09/05 01:16:26;;;;;;;4.07;2.10;;;22.30;55.60;;;;;;6241942;23;20070;-67
2022/09/05 01:18:59;;;;;;;3.40;2.55;;;22.30;55.90;;;;;;6242129;23;20418;-66
2022/09/05 01:21:30;;;;;;;4.03;2.40;;;22.30;56.20;;;;;;6242026;23;20087;-66
2022/09/05 01:24:37;;;;;;;3.33;2.42;;;22.20;56.20;;;;;;6242299;23;20001;-66
2022/09/05 01:27:40;;;;;;;2.40;2.20;;;22.30;56.20;;;;;;6240378;23;20016;-66
2022/09/05 01:30:19;;;;;;;3.63;2.40;;;22.20;56.30;;;;;;6241963;23;20000;-66
2022/09/05 01:32:47;;;;;;;3.67;2.90;;;22.20;56.30;;;;;;6242146;23;20657;-67
2022/09/05 01:35:25;;;;;;;3.28;2.20;;;22.20;56.70;;;;;;6241896;23;20079;-67
2022/09/05 01:38:30;;;;;;;3.33;2.53;;;22.10;56.80;;;;;;6242074;23;20062;-67
2022/09/05 01:41:20;;;;;;;3.20;2.60;;;22.10;57.00;;;;;;6240444;23;20132;-66
2022/09/05 01:44:04;;;;;;;3.90;2.53;;;22.10;56.90;;;;;;6228861;23;20102;-66
2022/09/05 01:46:54;;;;;;;3.08;2.40;;;22.00;56.90;;;;;;6240224;23;20016;-66
2022/09/05 01:49:40;;;;;;;2.60;2.40;;;22.10;57.00;;;;;;6242139;23;20359;-66
2022/09/05 01:52:18;;;;;;;6.05;3.38;;;22.00;56.90;;;;;;6241436;23;20004;-67
2022/09/05 01:55:20;;;;;;;3.72;2.65;;;22.00;57.50;;;;;;6241741;23;20441;-67
2022/09/05 01:57:52;;;;;;;3.22;2.55;;;21.90;57.30;;;;;;6241093;23;20077;-68
2022/09/05 02:00:24;;;;;;;3.05;2.67;;;22.00;57.30;;;;;;6241755;23;20429;-67
2022/09/05 02:02:57;;;;;;;3.58;2.83;;;22.00;57.30;;;;;;6240965;23;20640;-67
2022/09/05 02:05:52;;;;;;;3.40;2.67;;;21.90;57.40;;;;;;6241352;23;20737;-67
2022/09/05 02:08:38;;;;;;;4.28;2.90;;;21.90;57.50;;;;;;6241414;23;19997;-67
2022/09/05 02:11:07;;;;;;;3.13;2.65;;;21.90;57.50;;;;;;6241240;23;20008;-66
2022/09/05 02:13:32;;;;;;;4.72;2.60;;;21.80;57.60;;;;;;6241374;23;20313;-67
2022/09/05 02:16:02;;;;;;;2.90;2.45;;;21.80;57.70;;;;;;6241224;23;20087;-66
2022/09/05 02:18:56;;;;;;;3.70;2.53;;;21.80;57.70;;;;;;6239714;23;20006;-66
2022/09/05 02:21:26;;;;;;;2.65;2.42;;;21.80;57.90;;;;;;6241525;23;19996;-66
2022/09/05 02:24:00;;;;;;;3.55;2.63;;;21.70;58.00;;;;;;6241585;23;20063;-66
2022/09/05 02:26:34;;;;;;;3.03;2.50;;;21.60;58.00;;;;;;6241557;23;20495;-66
2022/09/05 02:29:15;;;;;;;3.10;2.55;;;21.60;58.10;;;;;;6241639;23;20035;-67
2022/09/05 02:31:51;;;;;;;2.90;2.60;;;21.60;58.20;;;;;;6241929;23;20007;-67
2022/09/05 02:34:32;;;;;;;5.18;2.80;;;21.60;58.20;;;;;;6241690;23;20032;-66
2022/09/05 02:37:07;;;;;;;6.38;3.97;;;21.60;58.20;;;;;;6240181;23;20057;-66
2022/09/05 02:39:35;;;;;;;4.15;3.17;;;21.50;58.20;;;;;;6240734;23;20000;-67
2022/09/05 02:42:20;;;;;;;4.22;3.05;;;21.50;58.20;;;;;;6241366;23;20023;-67
2022/09/05 02:45:06;;;;;;;4.60;3.00;;;21.50;58.30;;;;;;6241654;23;20043;-67
2022/09/05 02:47:59;;;;;;;4.18;3.05;;;21.50;58.40;;;;;;6241589;23;20001;-67
2022/09/05 02:50:36;;;;;;;4.10;3.13;;;21.50;58.50;;;;;;6241580;23;20000;-68
2022/09/05 02:53:03;;;;;;;4.57;3.25;;;21.50;58.50;;;;;;6241365;23;20005;-68
2022/09/05 02:56:17;;;;;;;5.82;2.95;;;21.40;58.60;;;;;;6241599;23;20000;-67
2022/09/05 02:58:51;;;;;;;4.93;3.10;;;21.40;58.60;;;;;;6220117;22;20004;-68
2022/09/05 03:01:49;;;;;;;3.80;3.05;;;21.40;58.70;;;;;;6241443;23;20031;-68
2022/09/05 03:04:43;;;;;;;4.90;3.10;;;21.40;58.80;;;;;;6241704;23;19996;-67
2022/09/05 03:07:32;;;;;;;3.58;3.15;;;21.40;58.80;;;;;;6241060;23;20337;-67
2022/09/05 03:09:58;;;;;;;6.78;3.70;;;21.40;58.90;;;;;;6242061;23;20011;-68
2022/09/05 03:12:51;;;;;;;4.40;3.33;;;21.40;59.00;;;;;;6241372;23;20314;-67
2022/09/05 03:15:47;;;;;;;4.05;3.50;;;21.30;59.10;;;;;;6242576;23;20007;-66
2022/09/05 03:18:22;;;;;;;3.92;3.50;;;21.30;59.40;;;;;;6243338;23;20051;-67
2022/09/05 03:21:39;;;;;;;3.15;2.85;;;21.30;59.30;;;;;;6242818;23;20006;-67
2022/09/05 03:24:32;;;;;;;4.63;3.10;;;21.30;59.30;;;;;;6218280;22;20035;-67
2022/09/05 03:27:09;;;;;;;7.50;3.22;;;21.30;59.40;;;;;;6243642;23;20057;-67
2022/09/05 03:29:59;;;;;;;4.40;3.53;;;21.30;59.50;;;;;;6243551;23;20000;-67
2022/09/05 03:32:35;;;;;;;4.72;3.53;;;21.20;59.70;;;;;;6243570;23;20028;-66
2022/09/05 03:35:42;;;;;;;5.25;3.90;;;21.20;59.80;;;;;;6243393;23;20103;-66
2022/09/05 03:38:29;;;;;;;4.38;3.47;;;21.20;60.10;;;;;;6243419;22;20000;-66
2022/09/05 03:41:11;;;;;;;4.75;3.80;;;21.20;60.00;;;;;;6243422;23;20086;-66
2022/09/05 03:43:55;;;;;;;5.95;3.45;;;21.20;60.20;;;;;;6241826;23;20483;-66
2022/09/05 03:46:24;;;;;;;5.50;3.80;;;21.20;60.10;;;;;;6241091;23;20086;-65
2022/09/05 03:49:15;;;;;;;4.25;3.65;;;21.20;60.10;;;;;;6242933;23;20027;-65
2022/09/05 03:51:55;;;;;;;6.88;3.70;;;21.20;60.20;;;;;;6242787;23;20000;-66
2022/09/05 03:54:39;;;;;;;5.25;3.55;;;21.20;60.30;;;;;;6242282;23;20027;-66
2022/09/05 03:57:34;;;;;;;5.68;3.67;;;21.20;60.30;;;;;;6242068;23;20028;-66
2022/09/05 04:00:09;;;;;;;5.05;3.65;;;21.10;60.40;;;;;;6242588;23;20070;-66
2022/09/05 04:03:16;;;;;;;4.85;4.07;;;21.10;60.60;;;;;;6242494;23;19996;-66
2022/09/05 04:05:51;;;;;;;5.03;3.58;;;21.10;60.60;;;;;;6210594;22;20004;-66
2022/09/05 04:08:45;;;;;;;4.28;3.65;;;21.10;60.70;;;;;;6242576;23;20428;-67
2022/09/05 04:11:29;;;;;;;5.93;3.50;;;21.10;60.80;;;;;;6242657;23;20000;-67
2022/09/05 04:14:01;;;;;;;5.72;4.90;;;21.00;60.60;;;;;;6242806;23;20099;-67
2022/09/05 04:16:52;;;;;;;4.90;4.30;;;21.00;61.20;;;;;;6243005;23;20010;-66
2022/09/05 04:19:33;;;;;;;5.88;3.95;;;21.00;61.30;;;;;;6242945;23;20635;-67
2022/09/05 04:22:33;;;;;;;4.33;3.80;;;21.00;61.30;;;;;;6242878;23;20000;-67
2022/09/05 04:25:11;;;;;;;4.75;3.45;;;21.00;61.30;;;;;;6242900;23;20003;-67
2022/09/05 04:28:15;;;;;;;5.53;3.97;;;20.90;61.20;;;;;;6242535;23;20362;-67
2022/09/05 04:31:10;;;;;;;4.10;3.70;;;20.90;61.50;;;;;;6209765;22;20514;-67
2022/09/05 04:34:03;;;;;;;5.35;4.50;;;20.90;61.50;;;;;;6242992;23;20000;-67
2022/09/05 04:36:35;;;;;;;4.65;3.97;;;20.90;61.60;;;;;;6241138;23;20012;-67
2022/09/05 04:39:07;;;;;;;5.43;3.75;;;20.90;61.70;;;;;;6241424;23;20127;-67
2022/09/05 04:41:39;;;;;;;5.90;4.00;;;20.80;61.70;;;;;;6242784;23;19996;-67
2022/09/05 04:44:15;;;;;;;;;;;20.90;61.80;;;;;;6242844;23;20071;-67
2022/09/05 04:46:47;;;;;;;5.47;4.18;;;20.80;61.70;;;;;;6242952;22;19900;-67
2022/09/05 04:49:25;;;;;;;4.65;3.90;;;20.70;61.90;;;;;;6242464;23;20004;-67
2022/09/05 04:52:20;;;;;;;4.35;3.85;;;20.80;62.10;;;;;;6242949;23;20333;-67
2022/09/05 04:54:51;;;;;;;5.63;4.20;;;20.70;62.20;;;;;;6242771;23;20004;-67
2022/09/05 04:57:30;;;;;;;5.63;4.32;;;20.60;62.20;;;;;;6242375;23;20039;-67
2022/09/05 05:00:06;;;;;;;5.40;4.15;;;20.70;62.40;;;;;;6243193;22;20079;-67
2022/09/05 05:03:03;;;;;;;4.53;3.95;;;20.60;62.50;;;;;;6242299;23;20000;-67
2022/09/05 05:05:44;;;;;;;4.63;3.70;;;20.60;62.50;;;;;;6242498;23;20390;-67
2022/09/05 05:08:23;;;;;;;4.90;3.50;;;20.60;62.50;;;;;;6242542;23;20011;-67
2022/09/05 05:10:56;;;;;;;5.63;4.68;;;20.60;62.50;;;;;;6242747;23;20448;-67
2022/09/05 05:14:07;;;;;;;5.03;4.10;;;20.60;62.80;;;;;;6242744;23;20015;-67
2022/09/05 05:16:40;;;;;;;5.63;4.10;;;20.60;63.00;;;;;;6237241;23;20012;-67
2022/09/05 05:19:18;;;;;;;4.40;4.00;;;20.60;62.90;;;;;;6240983;23;19996;-68
2022/09/05 05:21:55;;;;;;;5.95;4.32;;;20.60;63.00;;;;;;6239271;23;20000;-68
2022/09/05 05:24:31;;;;;;;5.00;4.10;;;20.60;63.00;;;;;;6242579;23;20385;-68
2022/09/05 05:27:30;;;;;;;5.85;4.40;;;20.60;63.00;;;;;;6241429;23;20353;-68
2022/09/05 05:30:01;;;;;;;5.50;4.78;;;20.60;62.90;;;;;;6230879;23;20008;-68
2022/09/05 05:32:34;;;;;;;5.10;4.60;;;20.80;62.90;;;;;;6242198;23;20130;-67
2022/09/05 05:35:11;;;;;;;6.07;4.32;;;21.10;62.20;;;;;;6242374;23;20007;-67
2022/09/05 05:37:45;;;;;;;6.07;4.60;;;21.20;61.80;;;;;;6241726;23;20000;-68
2022/09/05 05:40:18;;;;;;;5.15;4.03;;;21.20;61.80;;;;;;6241902;23;20318;-68
2022/09/05 05:42:44;;;;;;;7.28;5.72;;;21.20;61.90;;;;;;6242026;23;19996;-68
2022/09/05 05:45:27;;;;;;;5.20;3.80;;;21.10;62.40;;;;;;6241517;23;20068;-68
2022/09/05 05:48:03;;;;;;;8.48;5.80;;;21.10;62.40;;;;;;6241448;23;20008;-67
2022/09/05 05:51:16;;;;;;;8.35;5.53;;;21.00;62.80;;;;;;6241671;23;20050;-68
2022/09/05 05:54:14;;;;;;;5.90;4.72;;;20.90;63.10;;;;;;6241894;23;19996;-68
2022/09/05 05:57:23;;;;;;;7.13;4.75;;;21.00;63.00;;;;;;6241062;23;20042;-67
2022/09/05 06:00:02;;;;;;;5.38;4.43;;;22.30;61.70;;;;;;6194544;22;20012;-68
2022/09/05 06:03:09;;;;;;;6.88;4.97;;;24.00;58.50;;;;;;6241533;23;20082;-68
2022/09/05 06:06:02;;;;;;;5.43;4.20;;;25.40;55.40;;;;;;6241738;23;20588;-68
2022/09/05 06:08:52;;;;;;;5.60;4.15;;;26.70;52.90;;;;;;6241550;23;20448;-68
2022/09/05 06:11:33;;;;;;;5.53;4.10;;;27.80;50.90;;;;;;6241771;23;20008;-68
2022/09/05 06:14:34;;;;;;;6.38;4.35;;;28.70;49.40;;;;;;6239112;23;20007;-68
2022/09/05 06:17:38;;;;;;;5.18;4.07;;;29.40;47.90;;;;;;6240175;23;20008;-66
2022/09/05 06:20:34;;;;;;;7.57;5.60;;;30.10;46.50;;;;;;6164001;23;20078;-68
2022/09/05 06:23:24;;;;;;;6.05;4.10;;;30.10;45.30;;;;;;6240690;23;20337;-68
2022/09/05 06:26:32;;;;;;;6.53;4.40;;;30.90;45.00;;;;;;6239578;23;20456;-68
2022/09/05 06:29:03;;;;;;;4.97;3.80;;;31.50;44.00;;;;;;6239695;23;20008;-68
2022/09/05 06:31:36;;;;;;;4.00;3.08;;;32.10;43.00;;;;;;6241342;23;20004;-68
2022/09/05 06:34:39;;;;;;;5.10;4.03;;;32.50;42.60;;;;;;6240804;23;20318;-68
2022/09/05 06:37:08;;;;;;;4.32;3.50;;;32.90;41.50;;;;;;6240212;23;20027;-68
2022/09/05 06:39:39;;;;;;;4.38;3.20;;;33.20;41.20;;;;;;6240943;23;20000;-68
2022/09/05 06:42:31;;;;;;;5.38;3.47;;;33.20;40.80;;;;;;6240870;23;20090;-67
2022/09/05 06:45:18;;;;;;;3.95;3.00;;;33.00;40.70;;;;;;6205518;23;20088;-67
2022/09/05 06:47:46;;;;;;;4.32;3.40;;;33.40;40.40;;;;;;6241012;23;20060;-67
2022/09/05 06:50:43;;;;;;;4.45;3.50;;;33.60;40.30;;;;;;6242602;23;19997;-67
2022/09/05 06:53:27;;;;;;;5.70;4.13;;;33.60;39.40;;;;;;6243280;22;20006;-67
2022/09/05 06:56:10;;;;;;;5.03;3.85;;;33.10;39.50;;;;;;6243403;23;20054;-68
2022/09/05 06:58:58;;;;;;;5.32;3.47;;;33.20;40.00;;;;;;6243966;23;20354;-68
2022/09/05 07:01:30;;;;;;;5.32;4.13;;;33.10;39.80;;;;;;6243113;23;20429;-68
2022/09/05 07:04:28;;;;;;;4.55;3.85;;;33.00;39.70;;;;;;6243626;23;20007;-68
2022/09/05 07:07:02;;;;;;;5.40;3.58;;;33.10;40.00;;;;;;6242464;23;20004;-69
2022/09/05 07:09:58;;;;;;;9.85;4.30;;;33.40;39.60;;;;;;6243284;23;20008;-69
2022/09/05 07:12:50;;;;;;;4.15;2.85;;;33.90;38.80;;;;;;6242525;23;20023;-68
2022/09/05 07:15:33;;;;;;;;;;;33.50;38.70;;;;;;6236177;23;20012;-67
2022/09/05 07:18:17;;;;;;;6.32;3.33;;;33.40;39.00;;;;;;6241500;22;19899;-67
2022/09/05 07:20:51;;;;;;;5.63;4.15;;;33.00;39.00;;;;;;6242014;23;20000;-67
2022/09/05 07:23:39;;;;;;;4.80;3.58;;;32.70;39.40;;;;;;6241724;23;20008;-68
2022/09/05 07:26:07;;;;;;;4.45;3.45;;;32.80;39.60;;;;;;6243278;23;20425;-68
2022/09/05 07:28:34;;;;;;;4.43;3.33;;;32.70;39.50;;;;;;6242599;23;20499;-67
2022/09/05 07:31:04;;;;;;;4.47;2.97;;;33.10;39.40;;;;;;6243098;23;20500;-67
2022/09/05 07:33:30;;;;;;;3.25;2.50;;;33.20;39.20;;;;;;6242580;23;20741;-67
2022/09/05 07:36:09;;;;;;;4.70;3.50;;;33.60;39.10;;;;;;6242930;23;20023;-67
2022/09/05 07:38:37;;;;;;;3.28;2.78;;;33.60;38.60;;;;;;6242324;23;19996;-67
2022/09/05 07:41:22;;;;;;;4.25;3.25;;;33.90;38.40;;;;;;6242590;23;20000;-68
2022/09/05 07:43:53;;;;;;;2.92;2.47;;;33.90;38.30;;;;;;6243067;23;20031;-68
2022/09/05 07:46:23;;;;;;;4.05;2.80;;;34.20;38.10;;;;;;6242859;23;20012;-68
2022/09/05 07:48:54;;;;;;;4.90;3.22;;;34.50;37.90;;;;;;6242529;23;20004;-68
2022/09/05 07:51:27;;;;;;;;;;;34.60;37.20;;;;;;6243316;22;20083;-68
2022/09/05 07:53:59;;;;;;;3.85;2.50;;;34.90;37.30;;;;;;6243285;22;19899;-67
2022/09/05 07:56:58;;;;;;;;;;;35.40;37.40;;;;;;6243431;23;20011;-68
2022/09/05 07:59:27;;;;;;;4.07;2.75;;;35.60;36.20;;;;;;6193768;22;19899;-68
2022/09/05 08:01:54;;;;;;;4.65;3.00;;;35.20;35.80;;;;;;6242410;23;20006;-66
2022/09/05 08:04:31;;;;;;;4.38;3.10;;;33.80;36.30;;;;;;6242914;23;20050;-66
2022/09/05 08:07:04;;;;;;;3.17;2.53;;;33.00;37.30;;;;;;6242474;23;20617;-67
2022/09/05 08:09:35;;;;;;;4.82;3.20;;;32.50;38.00;;;;;;6242503;23;20011;-67
2022/09/05 08:12:12;;;;;;;4.30;2.78;;;32.00;38.00;;;;;;6243113;23;20031;-67
2022/09/05 08:14:44;;;;;;;2.95;2.55;;;31.30;39.00;;;;;;6242334;23;20058;-67
2022/09/05 08:17:16;;;;;;;5.35;2.95;;;30.90;39.80;;;;;;6242751;23;20008;-67
2022/09/05 08:19:54;;;;;;;4.50;3.38;;;30.80;40.20;;;;;;6241996;23;20007;-67
2022/09/05 08:22:24;;;;;;;5.55;3.53;;;30.50;40.60;;;;;;6241910;23;20000;-67
2022/09/05 08:25:12;;;;;;;5.63;3.38;;;29.80;41.50;;;;;;6242626;23;20449;-67
2022/09/05 08:28:18;;;;;;;5.90;3.60;;;29.40;42.80;;;;;;6241415;23;20058;-67
2022/09/05 08:30:51;;;;;;;4.45;4.05;;;28.90;43.70;;;;;;6149495;23;20031;-67
2022/09/05 08:33:24;;;;;;;5.18;3.83;;;28.60;44.50;;;;;;6229152;23;20082;-67
2022/09/05 08:35:59;;;;;;;5.00;3.92;;;28.40;45.20;;;;;;6242148;23;20000;-67
2022/09/05 08:38:26;;;;;;;5.30;4.47;;;28.10;45.80;;;;;;6241952;23;20007;-66
2022/09/05 08:41:24;;;;;;;4.25;3.55;;;27.80;46.40;;;;;;6242342;22;20004;-67
2022/09/05 08:44:11;;;;;;;4.72;3.63;;;27.70;46.90;;;;;;6202048;22;20015;-67
2022/09/05 08:46:52;;;;;;;5.20;3.95;;;27.70;46.90;;;;;;6242388;23;20008;-68
2022/09/05 08:49:45;;;;;;;3.23;2.53;;;27.60;46.50;;;;;;6241949;23;20491;-68
2022/09/05 08:52:39;;;;;;;4.15;3.40;;;27.60;46.40;;;;;;6241894;23;20341;-68
2022/09/05 08:55:30;;;;;;;5.45;3.50;;;27.60;46.70;;;;;;6242379;23;20000;-68
2022/09/05 08:58:16;;;;;;;5.18;3.60;;;27.70;46.50;;;;;;6242182;23;20008;-68
2022/09/05 09:01:21;;;;;;;3.90;3.15;;;27.60;46.50;;;;;;6241544;23;20000;-68
2022/09/05 09:04:11;;;;;;;5.10;3.58;;;27.70;46.70;;;;;;6208845;22;20568;-68
2022/09/05 09:06:56;;;;;;;5.70;3.65;;;27.70;46.80;;;;;;6242179;23;20422;-68
2022/09/05 09:09:51;;;;;;;4.85;3.38;;;27.70;46.60;;;;;;6241961;23;20008;-69
2022/09/05 09:12:47;;;;;;;5.45;3.50;;;27.70;46.50;;;;;;6241634;23;20004;-68
2022/09/05 09:15:31;;;;;;;6.32;3.95;;;27.70;46.50;;;;;;6242108;23;20035;-68
2022/09/05 09:17:58;;;;;;;5.28;3.65;;;27.70;46.30;;;;;;6242332;23;20004;-68
2022/09/05 09:20:42;;;;;;;4.57;3.28;;;27.80;46.20;;;;;;6241957;23;20003;-68
2022/09/05 09:23:31;;;;;;;5.43;3.08;;;27.80;45.90;;;;;;6240030;23;20000;-68
2022/09/05 09:26:09;;;;;;;5.95;3.00;;;27.80;45.70;;;;;;6242420;23;20004;-68
2022/09/05 09:29:05;;;;;;;4.65;2.33;;;27.90;45.70;;;;;;6241578;23;20008;-68
2022/09/05 09:31:55;;;;;;;3.10;2.50;;;28.10;45.50;;;;;;6239976;23;20039;-68
2022/09/05 09:34:31;;;;;;;2.78;1.90;;;28.20;45.80;;;;;;6241741;23;20048;-68
2022/09/05 09:37:18;;;;;;;4.00;2.33;;;28.30;45.00;;;;;;6236719;23;20004;-68
2022/09/05 09:40:09;;;;;;;6.18;2.33;;;28.50;44.50;;;;;;6239424;23;20004;-68
2022/09/05 09:42:52;;;;;;;2.23;1.97;;;28.60;44.50;;;;;;6239607;23;20071;-69
2022/09/05 09:45:48;;;;;;;4.65;3.20;;;28.70;44.20;;;;;;6239678;23;20223;-69
2022/09/05 09:48:31;;;;;;;5.22;2.30;;;28.70;44.10;;;;;;6239631;23;20007;-68
2022/09/05 09:51:25;;;;;;;3.60;2.25;;;28.80;44.30;;;;;;6238122;23;20008;-68
2022/09/05 09:54:03;;;;;;;2.92;1.73;;;28.90;43.70;;;;;;6237388;23;20012;-68
2022/09/05 09:57:02;;;;;;;2.38;1.63;;;29.00;43.50;;;;;;6238048;23;20004;-68
2022/09/05 09:59:46;;;;;;;3.83;1.63;;;29.00;41.90;;;;;;6238559;22;20004;-67
2022/09/05 10:02:33;;;;;;;2.30;1.70;;;29.00;41.80;;;;;;6235911;23;20364;-67
2022/09/05 10:05:33;;;;;;;1.25;1.10;;;29.10;39.70;;;;;;6236190;23;20004;-67
2022/09/05 10:07:58;;;;;;;1.40;1.10;;;29.10;39.20;;;;;;6236517;23;20007;-68
2022/09/05 10:10:50;;;;;;;3.58;1.48;;;29.10;39.10;;;;;;6239160;23;20064;-68
2022/09/05 10:13:19;;;;;;;;;;;29.20;39.60;;;;;;6224168;23;20007;-68
2022/09/05 10:16:23;;;;;;;1.85;1.25;;;29.20;39.00;;;;;;6238967;22;19975;-68
2022/09/05 10:19:10;;;;;;;1.33;0.82;;;29.20;38.70;;;;;;6146761;23;20001;-68
2022/09/05 10:22:00;;;;;;;1.63;1.15;;;29.20;38.30;;;;;;6234942;23;20004;-68
2022/09/05 10:24:31;;;;;;;2.20;1.20;;;29.20;38.10;;;;;;6240265;23;19996;-68
2022/09/05 10:27:29;;;;;;;;;;;29.30;37.90;;;;;;6239210;23;20752;-68
2022/09/05 10:30:06;;;;;;;3.05;1.38;;;29.30;37.10;;;;;;6189272;22;19900;-68
2022/09/05 10:33:03;;;;;;;1.63;1.20;;;29.30;37.40;;;;;;6239911;23;20004;-68
2022/09/05 10:35:40;;;;;;;1.90;1.13;;;29.40;37.60;;;;;;6240022;23;20380;-67
2022/09/05 10:38:06;;;;;;;1.40;1.30;;;29.50;37.50;;;;;;6238836;23;20035;-67
2022/09/05 10:40:35;;;;;;;1.83;0.90;;;29.50;37.10;;;;;;6239461;23;20000;-68
2022/09/05 10:43:22;;;;;;;2.60;1.40;;;29.70;37.00;;;;;;6238665;23;20007;-68
2022/09/05 10:45:59;;;;;;;2.13;1.63;;;29.70;35.90;;;;;;6238773;23;20405;-68
2022/09/05 10:48:27;;;;;;;1.88;1.10;;;29.70;35.60;;;;;;6238373;23;20008;-68
2022/09/05 10:51:28;;;;;;;0.93;0.93;;;29.80;35.60;;;;;;6239904;23;20012;-68
2022/09/05 10:54:30;;;;;;;0.77;0.77;;;29.80;35.50;;;;;;6210717;22;20088;-68
2022/09/05 10:57:25;;;;;;;1.10;1.00;;;29.80;35.30;;;;;;6238707;23;20080;-69
2022/09/05 11:00:09;;;;;;;1.45;0.93;;;29.80;35.50;;;;;;6239159;22;19996;-68
2022/09/05 11:02:40;;;;;;;1.20;0.90;;;29.90;34.90;;;;;;6239951;23;20000;-68
2022/09/05 11:05:17;;;;;;;1.45;1.00;;;29.90;35.10;;;;;;6240395;23;20366;-68
2022/09/05 11:08:35;;;;;;;3.58;1.13;;;30.10;34.80;;;;;;6238803;23;20046;-67
2022/09/05 11:11:24;;;;;;;2.13;1.20;;;30.10;34.40;;;;;;6173004;22;20015;-68
2022/09/05 11:13:53;;;;;;;1.00;0.90;;;30.10;34.60;;;;;;6239555;23;20079;-68
2022/09/05 11:16:47;;;;;;;1.08;0.98;;;30.20;34.80;;;;;;6238052;23;20151;-68
2022/09/05 11:19:20;;;;;;;1.45;1.10;;;30.30;34.30;;;;;;6238938;23;20023;-68
2022/09/05 11:22:06;;;;;;;1.15;0.90;;;30.40;33.80;;;;;;6239885;23;20430;-68
2022/09/05 11:24:56;;;;;;;0.88;0.88;;;30.40;33.20;;;;;;6239533;23;20000;-68
2022/09/05 11:27:33;;;;;;;1.63;0.95;;;30.50;33.40;;;;;;6238125;23;20050;-68
2022/09/05 11:30:05;;;;;;;1.10;0.93;;;30.70;32.90;;;;;;6239855;23;20007;-68
2022/09/05 11:32:39;;;;;;;1.00;0.90;;;30.70;33.10;;;;;;6239413;23;20005;-68
2022/09/05 11:35:08;;;;;;;3.08;1.42;;;30.90;33.30;;;;;;6240056;23;20004;-68
2022/09/05 11:37:51;;;;;;;2.10;1.20;;;31.10;32.40;;;;;;6239867;23;20004;-68
2022/09/05 11:41:12;;;;;;;3.95;1.30;;;30.90;32.30;;;;;;6239177;23;20075;-68
2022/09/05 11:44:05;;;;;;;1.67;1.10;;;30.90;32.50;;;;;;6146210;23;20034;-68
2022/09/05 11:46:52;;;;;;;2.50;1.38;;;31.00;32.60;;;;;;6239530;22;20038;-68
2022/09/05 11:49:59;;;;;;;1.02;0.90;;;31.00;32.50;;;;;;6241000;23;20007;-68
2022/09/05 11:53:06;;;;;;;2.25;1.20;;;31.10;32.70;;;;;;6241561;22;20083;-69
2022/09/05 11:56:02;;;;;;;1.10;0.80;;;31.00;32.20;;;;;;6241233;23;20083;-68
2022/09/05 11:58:30;;;;;;;1.88;1.30;;;31.20;33.30;;;;;;6241238;23;20000;-70
2022/09/05 12:01:08;;;;;;;2.15;1.27;;;31.20;31.70;;;;;;6240947;23;20502;-69
2022/09/05 12:04:06;;;;;;;1.88;1.05;;;31.00;31.90;;;;;;6241278;23;20000;-68
2022/09/05 12:07:02;;;;;;;2.33;1.25;;;30.90;32.00;;;;;;6238976;23;20007;-68
2022/09/05 12:09:28;;;;;;;1.60;1.40;;;30.90;32.40;;;;;;6239968;23;20008;-68
2022/09/05 12:12:31;;;;;;;1.95;1.45;;;30.90;32.10;;;;;;6240520;23;20092;-68
2022/09/05 12:15:02;;;;;;;1.10;1.00;;;31.00;31.90;;;;;;6241542;23;20417;-68
2022/09/05 12:17:35;;;;;;;1.30;1.00;;;31.20;31.80;;;;;;6240434;23;20551;-68
2022/09/05 12:20:15;;;;;;;2.10;0.88;;;31.20;32.00;;;;;;6239514;23;20420;-68
2022/09/05 12:23:20;;;;;;;0.95;0.82;;;31.40;31.90;;;;;;6240709;22;20000;-68
2022/09/05 12:25:53;;;;;;;0.90;0.90;;;31.80;31.90;;;;;;6240063;23;20378;-68
2022/09/05 12:28:31;;;;;;;1.75;1.13;;;32.00;31.40;;;;;;6241373;23;20037;-68
2022/09/05 12:31:37;;;;;;;1.55;1.10;;;31.90;30.30;;;;;;6241476;23;20049;-68
2022/09/05 12:34:08;;;;;;;1.58;0.90;;;31.80;30.80;;;;;;6196618;22;20437;-69
2022/09/05 12:36:40;;;;;;;3.00;1.10;;;31.80;30.60;;;;;;6239806;23;20004;-68
2022/09/05 12:39:26;;;;;;;3.72;1.08;;;31.80;30.50;;;;;;6241400;23;20000;-68
2022/09/05 12:42:14;;;;;;;1.73;1.10;;;31.90;30.30;;;;;;6240248;23;20038;-68
2022/09/05 12:45:10;;;;;;;2.08;1.00;;;32.10;30.30;;;;;;6240779;23;20004;-68
2022/09/05 12:47:57;;;;;;;7.43;1.20;;;32.30;30.00;;;;;;6239243;23;20000;-69
2022/09/05 12:50:41;;;;;;;1.58;0.90;;;32.20;29.70;;;;;;6240617;23;20429;-69
2022/09/05 12:53:12;;;;;;;1.92;1.00;;;32.20;30.00;;;;;;6241178;23;20452;-69
2022/09/05 12:55:43;;;;;;;2.17;0.95;;;32.40;29.90;;;;;;6240142;23;20004;-68
2022/09/05 12:58:29;;;;;;;4.05;1.20;;;32.40;29.90;;;;;;6240516;23;20000;-68
2022/09/05 13:01:20;;;;;;;1.30;1.00;;;32.50;29.30;;;;;;6239923;23;20005;-69
2022/09/05 13:04:21;;;;;;;1.48;1.10;;;32.30;29.60;;;;;;6240837;23;20036;-68
2022/09/05 13:06:57;;;;;;;1.58;0.90;;;32.30;29.60;;;;;;6238855;22;20008;-69
2022/09/05 13:09:24;;;;;;;1.02;0.93;;;32.30;29.70;;;;;;6240227;23;20043;-68
2022/09/05 13:12:03;;;;;;;0.85;0.80;;;32.50;29.80;;;;;;6239369;23;20016;-68
2022/09/05 13:14:40;;;;;;;1.65;1.17;;;32.80;29.70;;;;;;6240238;23;20000;-68
2022/09/05 13:17:07;;;;;;;1.23;1.13;;;32.70;28.70;;;;;;6238673;23;20004;-69
2022/09/05 13:19:46;;;;;;;1.10;0.90;;;32.50;28.90;;;;;;6240643;23;20011;-68
2022/09/05 13:22:17;;;;;;;1.20;1.10;;;32.20;28.90;;;;;;6240613;23;20000;-68
2022/09/05 13:24:48;;;;;;;1.70;0.90;;;32.30;29.30;;;;;;6240595;23;20609;-68
2022/09/05 13:27:33;;;;;;;1.35;1.10;;;32.70;29.50;;;;;;6238350;23;20440;-68
2022/09/05 13:30:09;;;;;;;2.50;1.20;;;33.00;29.10;;;;;;6240368;22;20007;-69
2022/09/05 13:32:39;;;;;;;1.92;0.80;;;33.20;28.90;;;;;;6240318;23;20031;-69
2022/09/05 13:35:05;;;;;;;1.42;0.90;;;33.30;28.80;;;;;;6240394;23;20018;-69
2022/09/05 13:37:41;;;;;;;1.20;0.90;;;33.20;28.70;;;;;;6238150;23;20031;-69
2022/09/05 13:40:19;;;;;;;2.15;0.95;;;33.40;28.70;;;;;;6240100;23;20004;-69
2022/09/05 13:42:57;;;;;;;1.77;0.80;;;33.40;28.60;;;;;;6240330;23;19996;-69
2022/09/05 13:45:23;;;;;;;1.48;1.00;;;33.50;28.70;;;;;;6240232;23;20012;-68
2022/09/05 13:48:28;;;;;;;1.33;0.80;;;33.70;28.80;;;;;;6238816;23;20089;-69
2022/09/05 13:51:04;;;;;;;1.48;0.80;;;33.90;28.60;;;;;;6146420;23;20005;-69
2022/09/05 13:53:39;;;;;;;0.82;0.80;;;34.10;28.40;;;;;;6146837;23;20020;-69
2022/09/05 13:56:25;;;;;;;1.75;0.80;;;34.20;28.30;;;;;;6201242;22;20019;-69
2022/09/05 13:59:01;;;;;;;1.02;0.93;;;34.30;28.20;;;;;;6239404;23;20087;-69
2022/09/05 14:01:33;;;;;;;1.13;0.90;;;33.80;27.60;;;;;;6239161;23;20433;-69
2022/09/05 14:04:36;;;;;;;0.82;0.80;;;33.60;28.20;;;;;;6239023;23;20000;-68
2022/09/05 14:07:11;;;;;;;0.98;0.88;;;33.60;28.30;;;;;;6238406;23;20007;-68
2022/09/05 14:09:48;;;;;;;1.80;0.80;;;33.80;28.40;;;;;;6239457;23;20425;-68
2022/09/05 14:12:49;;;;;;;1.67;0.88;;;34.00;28.40;;;;;;6240110;23;20547;-69